sensor_id;sensor_type;location;lat;lon;timestamp;pressure;altitude;pressure_sealevel;temperature;humidity
27144;BME280;14672;50.250;8.312;2024-02-23T00:01:24;96402.47;;;10.81;54.37
27144;BME280;14672;50.250;8.312;2024-02-23T00:03:50;96400.38;;;10.93;54.43
27144;BME280;14672;50.250;8.312;2024-02-23T00:06:17;96414.84;;;10.90;54.29
27144;BME280;14672;50.250;8.312;2024-02-23T00:08:43;96433.44;;;10.79;54.20
27144;BME280;14672;50.250;8.312;2024-02-23T00:11:09;96426.47;;;10.80;54.31
27144;BME280;14672;50.250;8.312;2024-02-23T00:13:35;96439.16;;;10.57;54.71
27144;BME280;14672;50.250;8.312;2024-02-23T00:16:01;96458.22;;;10.79;55.11
27144;BME280;14672;50.250;8.312;2024-02-23T00:18:27;96501.09;;;10.42;55.36
27144;BME280;14672;50.250;8.312;2024-02-23T00:20:53;96517.34;;;10.64;54.93
27144;BME280;14672;50.250;8.312;2024-02-23T00:23:18;96482.50;;;10.52;53.97
27144;BME280;14672;50.250;8.312;2024-02-23T00:25:47;96489.75;;;10.31;54.51
27144;BME280;14672;50.250;8.312;2024-02-23T00:28:13;96496.44;;;10.28;54.71
27144;BME280;14672;50.250;8.312;2024-02-23T00:30:38;96503.41;;;10.21;54.94
27144;BME280;14672;50.250;8.312;2024-02-23T00:33:05;96522.97;;;10.19;55.51
27144;BME280;14672;50.250;8.312;2024-02-23T00:35:31;96517.34;;;10.25;55.44
27144;BME280;14672;50.250;8.312;2024-02-23T00:37:59;96515.28;;;10.36;54.90
27144;BME280;14672;50.250;8.312;2024-02-23T00:40:25;96541.81;;;10.17;55.46
27144;BME280;14672;50.250;8.312;2024-02-23T00:42:51;96556.81;;;10.23;55.58
27144;BME280;14672;50.250;8.312;2024-02-23T00:45:17;96554.44;;;10.16;56.20
27144;BME280;14672;50.250;8.312;2024-02-23T00:47:43;96576.78;;;9.91;57.37
27144;BME280;14672;50.250;8.312;2024-02-23T00:50:09;96575.78;;;9.95;57.97
27144;BME280;14672;50.250;8.312;2024-02-23T00:52:36;96555.16;;;10.05;58.04
27144;BME280;14672;50.250;8.312;2024-02-23T00:55:02;96572.13;;;9.88;57.48
27144;BME280;14672;50.250;8.312;2024-02-23T00:57:28;96567.28;;;10.00;57.60
27144;BME280;14672;50.250;8.312;2024-02-23T00:59:56;96570.94;;;9.47;58.85
27144;BME280;14672;50.250;8.312;2024-02-23T01:02:22;96580.84;;;9.74;58.58
27144;BME280;14672;50.250;8.312;2024-02-23T01:04:48;96569.56;;;9.90;58.24
27144;BME280;14672;50.250;8.312;2024-02-23T01:07:14;96579.91;;;9.99;57.52
27144;BME280;14672;50.250;8.312;2024-02-23T01:09:40;96590.91;;;9.80;57.39
27144;BME280;14672;50.250;8.312;2024-02-23T01:12:06;96594.84;;;9.94;56.48
27144;BME280;14672;50.250;8.312;2024-02-23T01:14:32;96601.22;;;9.83;56.44
27144;BME280;14672;50.250;8.312;2024-02-23T01:16:57;96598.94;;;9.87;56.67
27144;BME280;14672;50.250;8.312;2024-02-23T01:19:23;96597.16;;;9.90;56.55
27144;BME280;14672;50.250;8.312;2024-02-23T01:21:49;96604.13;;;9.95;56.48
27144;BME280;14672;50.250;8.312;2024-02-23T01:24:22;96613.09;;;9.82;55.84
27144;BME280;14672;50.250;8.312;2024-02-23T01:26:47;96615.69;;;9.85;56.15
27144;BME280;14672;50.250;8.312;2024-02-23T01:29:13;96615.91;;;9.76;55.84
27144;BME280;14672;50.250;8.312;2024-02-23T01:31:39;96618.19;;;9.72;55.89
27144;BME280;14672;50.250;8.312;2024-02-23T01:34:05;96624.97;;;9.86;55.99
27144;BME280;14672;50.250;8.312;2024-02-23T01:36:31;96619.59;;;9.94;55.50
27144;BME280;14672;50.250;8.312;2024-02-23T01:38:57;96619.28;;;9.80;55.87
27144;BME280;14672;50.250;8.312;2024-02-23T01:41:22;96613.84;;;9.77;55.42
27144;BME280;14672;50.250;8.312;2024-02-23T01:43:48;96638.28;;;9.69;55.71
27144;BME280;14672;50.250;8.312;2024-02-23T01:46:15;96629.97;;;9.54;55.20
27144;BME280;14672;50.250;8.312;2024-02-23T01:48:44;96642.94;;;9.72;55.13
27144;BME280;14672;50.250;8.312;2024-02-23T01:51:10;96634.41;;;9.66;55.01
27144;BME280;14672;50.250;8.312;2024-02-23T01:53:36;96648.06;;;9.68;55.26
27144;BME280;14672;50.250;8.312;2024-02-23T01:56:04;96648.31;;;9.64;55.02
27144;BME280;14672;50.250;8.312;2024-02-23T01:58:30;96655.00;;;9.61;54.83
27144;BME280;14672;50.250;8.312;2024-02-23T02:00:56;96646.94;;;9.49;54.52
27144;BME280;14672;50.250;8.312;2024-02-23T02:03:22;96656.78;;;9.59;54.89
27144;BME280;14672;50.250;8.312;2024-02-23T02:05:48;96662.91;;;9.52;54.63
27144;BME280;14672;50.250;8.312;2024-02-23T02:08:15;96645.47;;;9.59;54.59
27144;BME280;14672;50.250;8.312;2024-02-23T02:10:41;96670.19;;;9.58;54.81
27144;BME280;14672;50.250;8.312;2024-02-23T02:13:08;96666.75;;;9.49;55.10
27144;BME280;14672;50.250;8.312;2024-02-23T02:15:37;96667.50;;;9.43;54.75
27144;BME280;14672;50.250;8.312;2024-02-23T02:18:03;96664.66;;;9.43;54.87
27144;BME280;14672;50.250;8.312;2024-02-23T02:20:33;96671.41;;;9.52;54.71
27144;BME280;14672;50.250;8.312;2024-02-23T02:22:59;96677.94;;;9.26;55.21
27144;BME280;14672;50.250;8.312;2024-02-23T02:25:25;96686.13;;;9.19;55.68
27144;BME280;14672;50.250;8.312;2024-02-23T02:27:50;96683.44;;;9.35;55.02
27144;BME280;14672;50.250;8.312;2024-02-23T02:30:22;96687.91;;;9.16;55.14
27144;BME280;14672;50.250;8.312;2024-02-23T02:32:48;96698.78;;;9.23;55.57
27144;BME280;14672;50.250;8.312;2024-02-23T02:35:13;96701.72;;;9.40;54.62
27144;BME280;14672;50.250;8.312;2024-02-23T02:37:39;96690.63;;;9.36;54.79
27144;BME280;14672;50.250;8.312;2024-02-23T02:40:06;96687.53;;;9.34;54.75
27144;BME280;14672;50.250;8.312;2024-02-23T02:42:34;96697.16;;;9.11;54.50
27144;BME280;14672;50.250;8.312;2024-02-23T02:45:01;96689.00;;;9.24;54.24
27144;BME280;14672;50.250;8.312;2024-02-23T02:47:28;96680.72;;;9.21;53.76
27144;BME280;14672;50.250;8.312;2024-02-23T02:49:54;96689.47;;;9.17;53.60
27144;BME280;14672;50.250;8.312;2024-02-23T02:52:19;96675.97;;;9.38;53.04
27144;BME280;14672;50.250;8.312;2024-02-23T02:54:48;96693.84;;;9.18;53.47
27144;BME280;14672;50.250;8.312;2024-02-23T02:57:14;96694.66;;;9.24;53.16
27144;BME280;14672;50.250;8.312;2024-02-23T02:59:40;96699.44;;;9.07;53.59
27144;BME280;14672;50.250;8.312;2024-02-23T03:02:06;96704.41;;;9.18;53.75
27144;BME280;14672;50.250;8.312;2024-02-23T03:04:32;96708.66;;;9.33;53.29
27144;BME280;14672;50.250;8.312;2024-02-23T03:06:57;96706.75;;;8.93;54.16
27144;BME280;14672;50.250;8.312;2024-02-23T03:09:23;96712.72;;;8.95;54.43
27144;BME280;14672;50.250;8.312;2024-02-23T03:11:49;96716.69;;;9.09;54.71
27144;BME280;14672;50.250;8.312;2024-02-23T03:14:14;96711.66;;;8.67;55.85
27144;BME280;14672;50.250;8.312;2024-02-23T03:16:43;96726.13;;;8.75;55.82
27144;BME280;14672;50.250;8.312;2024-02-23T03:19:11;96719.25;;;8.56;56.27
27144;BME280;14672;50.250;8.312;2024-02-23T03:21:37;96725.69;;;8.82;55.92
27144;BME280;14672;50.250;8.312;2024-02-23T03:24:03;96717.69;;;8.55;56.54
27144;BME280;14672;50.250;8.312;2024-02-23T03:26:29;96726.72;;;8.59;56.52
27144;BME280;14672;50.250;8.312;2024-02-23T03:28:54;96716.69;;;8.58;55.70
27144;BME280;14672;50.250;8.312;2024-02-23T03:31:20;96732.84;;;8.52;55.77
27144;BME280;14672;50.250;8.312;2024-02-23T03:33:46;96721.66;;;8.68;55.48
27144;BME280;14672;50.250;8.312;2024-02-23T03:36:12;96726.34;;;8.71;54.82
27144;BME280;14672;50.250;8.312;2024-02-23T03:38:38;96733.69;;;8.83;55.01
27144;BME280;14672;50.250;8.312;2024-02-23T03:41:04;96727.91;;;8.72;55.22
27144;BME280;14672;50.250;8.312;2024-02-23T03:43:29;96730.41;;;8.90;54.70
27144;BME280;14672;50.250;8.312;2024-02-23T03:45:55;96722.47;;;8.94;54.38
27144;BME280;14672;50.250;8.312;2024-02-23T03:48:21;96725.22;;;8.89;54.28
27144;BME280;14672;50.250;8.312;2024-02-23T03:50:47;96722.69;;;8.65;54.58
27144;BME280;14672;50.250;8.312;2024-02-23T03:53:12;96728.91;;;8.69;54.79
27144;BME280;14672;50.250;8.312;2024-02-23T03:55:38;96735.22;;;8.84;54.37
27144;BME280;14672;50.250;8.312;2024-02-23T03:58:04;96738.06;;;8.84;54.67
27144;BME280;14672;50.250;8.312;2024-02-23T04:00:30;96738.38;;;8.92;54.97
27144;BME280;14672;50.250;8.312;2024-02-23T04:02:55;96739.84;;;8.82;55.12
27144;BME280;14672;50.250;8.312;2024-02-23T04:05:21;96740.25;;;8.95;55.02
27144;BME280;14672;50.250;8.312;2024-02-23T04:07:47;96756.22;;;8.98;54.75
27144;BME280;14672;50.250;8.312;2024-02-23T04:10:12;96754.44;;;9.01;54.61
27144;BME280;14672;50.250;8.312;2024-02-23T04:12:42;96754.66;;;8.97;55.31
27144;BME280;14672;50.250;8.312;2024-02-23T04:15:10;96751.09;;;8.76;55.33
27144;BME280;14672;50.250;8.312;2024-02-23T04:17:35;96757.09;;;8.84;55.24
27144;BME280;14672;50.250;8.312;2024-02-23T04:20:06;96749.50;;;8.70;54.77
27144;BME280;14672;50.250;8.312;2024-02-23T04:22:33;96745.13;;;8.94;54.30
27144;BME280;14672;50.250;8.312;2024-02-23T04:24:58;96753.88;;;8.96;54.32
27144;BME280;14672;50.250;8.312;2024-02-23T04:27:24;96754.94;;;8.73;54.69
27144;BME280;14672;50.250;8.312;2024-02-23T04:29:50;96750.56;;;8.98;54.27
27144;BME280;14672;50.250;8.312;2024-02-23T04:32:15;96749.00;;;8.97;54.50
27144;BME280;14672;50.250;8.312;2024-02-23T04:34:41;96752.09;;;8.73;55.29
27144;BME280;14672;50.250;8.312;2024-02-23T04:37:07;96750.75;;;8.69;55.65
27144;BME280;14672;50.250;8.312;2024-02-23T04:39:33;96746.88;;;8.92;55.04
27144;BME280;14672;50.250;8.312;2024-02-23T04:41:58;96752.00;;;8.88;55.42
27144;BME280;14672;50.250;8.312;2024-02-23T04:44:24;96742.56;;;8.96;55.23
27144;BME280;14672;50.250;8.312;2024-02-23T04:46:50;96748.78;;;9.01;55.49
27144;BME280;14672;50.250;8.312;2024-02-23T04:49:16;96746.00;;;9.06;55.29
27144;BME280;14672;50.250;8.312;2024-02-23T04:51:41;96739.78;;;9.02;55.34
27144;BME280;14672;50.250;8.312;2024-02-23T04:54:07;96740.00;;;8.99;55.97
27144;BME280;14672;50.250;8.312;2024-02-23T04:56:33;96748.53;;;9.04;55.59
27144;BME280;14672;50.250;8.312;2024-02-23T04:58:59;96756.00;;;9.02;56.04
27144;BME280;14672;50.250;8.312;2024-02-23T05:01:25;96749.09;;;9.08;55.55
27144;BME280;14672;50.250;8.312;2024-02-23T05:03:50;96753.78;;;9.11;55.75
27144;BME280;14672;50.250;8.312;2024-02-23T05:06:17;96757.88;;;9.10;55.74
27144;BME280;14672;50.250;8.312;2024-02-23T05:08:43;96757.88;;;9.10;55.81
27144;BME280;14672;50.250;8.312;2024-02-23T05:11:09;96759.44;;;9.11;55.62
27144;BME280;14672;50.250;8.312;2024-02-23T05:13:35;96754.34;;;9.15;55.91
27144;BME280;14672;50.250;8.312;2024-02-23T05:16:02;96763.78;;;9.07;55.27
27144;BME280;14672;50.250;8.312;2024-02-23T05:18:28;96756.63;;;9.11;55.20
27144;BME280;14672;50.250;8.312;2024-02-23T05:20:54;96756.09;;;9.13;55.62
27144;BME280;14672;50.250;8.312;2024-02-23T05:23:19;96758.59;;;9.05;55.65
27144;BME280;14672;50.250;8.312;2024-02-23T05:25:45;96759.66;;;9.08;55.60
27144;BME280;14672;50.250;8.312;2024-02-23T05:28:11;96751.94;;;9.08;55.41
27144;BME280;14672;50.250;8.312;2024-02-23T05:30:37;96757.44;;;9.17;55.27
27144;BME280;14672;50.250;8.312;2024-02-23T05:33:02;96746.50;;;9.05;55.59
27144;BME280;14672;50.250;8.312;2024-02-23T05:35:31;96747.00;;;9.03;56.07
27144;BME280;14672;50.250;8.312;2024-02-23T05:37:57;96748.00;;;9.00;56.99
27144;BME280;14672;50.250;8.312;2024-02-23T05:40:24;96755.22;;;9.01;57.27
27144;BME280;14672;50.250;8.312;2024-02-23T05:42:50;96749.63;;;9.07;57.10
27144;BME280;14672;50.250;8.312;2024-02-23T05:45:15;96749.41;;;9.10;57.56
27144;BME280;14672;50.250;8.312;2024-02-23T05:47:41;96747.44;;;8.96;57.44
27144;BME280;14672;50.250;8.312;2024-02-23T05:50:10;96745.72;;;9.04;57.15
27144;BME280;14672;50.250;8.312;2024-02-23T05:52:36;96744.66;;;9.02;56.78
27144;BME280;14672;50.250;8.312;2024-02-23T05:55:03;96756.69;;;8.91;57.35
27144;BME280;14672;50.250;8.312;2024-02-23T05:57:29;96751.00;;;8.91;57.66
27144;BME280;14672;50.250;8.312;2024-02-23T05:59:55;96751.44;;;8.84;57.53
27144;BME280;14672;50.250;8.312;2024-02-23T06:02:22;96747.56;;;8.81;57.95
27144;BME280;14672;50.250;8.312;2024-02-23T06:04:48;96740.84;;;8.79;58.04
27144;BME280;14672;50.250;8.312;2024-02-23T06:07:14;96759.81;;;8.73;58.94
27144;BME280;14672;50.250;8.312;2024-02-23T06:09:43;96767.03;;;8.74;59.17
27144;BME280;14672;50.250;8.312;2024-02-23T06:12:09;96772.44;;;8.72;58.92
27144;BME280;14672;50.250;8.312;2024-02-23T06:14:36;96768.53;;;8.69;59.35
27144;BME280;14672;50.250;8.312;2024-02-23T06:17:02;96780.06;;;8.66;60.20
27144;BME280;14672;50.250;8.312;2024-02-23T06:19:28;96777.72;;;8.64;59.87
27144;BME280;14672;50.250;8.312;2024-02-23T06:21:54;96771.31;;;8.64;60.06
27144;BME280;14672;50.250;8.312;2024-02-23T06:24:20;96779.06;;;8.69;59.84
27144;BME280;14672;50.250;8.312;2024-02-23T06:26:46;96779.84;;;8.69;59.84
27144;BME280;14672;50.250;8.312;2024-02-23T06:29:14;96774.13;;;8.64;60.29
27144;BME280;14672;50.250;8.312;2024-02-23T06:31:40;96773.97;;;8.53;60.24
27144;BME280;14672;50.250;8.312;2024-02-23T06:34:08;96781.28;;;8.59;60.52
27144;BME280;14672;50.250;8.312;2024-02-23T06:36:34;96792.25;;;8.72;60.19
27144;BME280;14672;50.250;8.312;2024-02-23T06:38:59;96794.34;;;8.57;60.84
27144;BME280;14672;50.250;8.312;2024-02-23T06:41:25;96801.56;;;8.58;60.54
27144;BME280;14672;50.250;8.312;2024-02-23T06:43:52;96797.91;;;8.52;60.83
27144;BME280;14672;50.250;8.312;2024-02-23T06:46:19;96808.38;;;8.66;60.55
27144;BME280;14672;50.250;8.312;2024-02-23T06:48:48;96804.84;;;8.71;60.71
27144;BME280;14672;50.250;8.312;2024-02-23T06:51:14;96806.44;;;8.57;60.73
27144;BME280;14672;50.250;8.312;2024-02-23T06:53:41;96811.31;;;8.57;60.65
27144;BME280;14672;50.250;8.312;2024-02-23T06:56:07;96812.25;;;8.68;60.05
27144;BME280;14672;50.250;8.312;2024-02-23T06:58:33;96815.81;;;8.63;60.65
27144;BME280;14672;50.250;8.312;2024-02-23T07:00:58;96819.34;;;8.58;60.74
27144;BME280;14672;50.250;8.312;2024-02-23T07:03:25;96828.19;;;8.66;60.05
27144;BME280;14672;50.250;8.312;2024-02-23T07:05:51;96826.91;;;8.67;59.81
27144;BME280;14672;50.250;8.312;2024-02-23T07:08:17;96833.13;;;8.71;60.03
27144;BME280;14672;50.250;8.312;2024-02-23T07:10:43;96835.03;;;8.59;60.39
27144;BME280;14672;50.250;8.312;2024-02-23T07:13:09;96819.56;;;8.55;60.38
27144;BME280;14672;50.250;8.312;2024-02-23T07:15:35;96818.91;;;8.65;59.91
27144;BME280;14672;50.250;8.312;2024-02-23T07:18:02;96815.16;;;8.54;60.43
27144;BME280;14672;50.250;8.312;2024-02-23T07:20:27;96821.25;;;8.67;59.94
27144;BME280;14672;50.250;8.312;2024-02-23T07:22:53;96815.44;;;8.56;60.53
27144;BME280;14672;50.250;8.312;2024-02-23T07:25:20;96827.75;;;8.53;60.41
27144;BME280;14672;50.250;8.312;2024-02-23T07:27:49;96833.41;;;8.53;60.66
27144;BME280;14672;50.250;8.312;2024-02-23T07:30:15;96838.28;;;8.52;60.58
27144;BME280;14672;50.250;8.312;2024-02-23T07:32:43;96836.00;;;8.56;60.47
27144;BME280;14672;50.250;8.312;2024-02-23T07:35:10;96843.59;;;8.65;60.54
27144;BME280;14672;50.250;8.312;2024-02-23T07:37:39;96842.19;;;8.55;61.27
27144;BME280;14672;50.250;8.312;2024-02-23T07:40:06;96847.16;;;8.60;61.15
27144;BME280;14672;50.250;8.312;2024-02-23T07:42:32;96843.47;;;8.74;60.56
27144;BME280;14672;50.250;8.312;2024-02-23T07:44:58;96854.09;;;8.79;61.14
27144;BME280;14672;50.250;8.312;2024-02-23T07:47:24;96853.72;;;8.71;60.72
27144;BME280;14672;50.250;8.312;2024-02-23T07:49:52;96856.56;;;8.71;60.82
27144;BME280;14672;50.250;8.312;2024-02-23T07:52:19;96848.28;;;8.47;60.97
27144;BME280;14672;50.250;8.312;2024-02-23T07:54:45;96851.72;;;8.37;61.19
27144;BME280;14672;50.250;8.312;2024-02-23T07:57:10;96853.09;;;8.62;61.16
27144;BME280;14672;50.250;8.312;2024-02-23T07:59:36;96859.31;;;8.66;60.92
27144;BME280;14672;50.250;8.312;2024-02-23T08:02:02;96855.91;;;8.82;60.77
27144;BME280;14672;50.250;8.312;2024-02-23T08:04:28;96859.66;;;8.73;61.00
27144;BME280;14672;50.250;8.312;2024-02-23T08:06:53;96861.28;;;8.80;60.70
27144;BME280;14672;50.250;8.312;2024-02-23T08:09:19;96865.19;;;8.62;61.46
27144;BME280;14672;50.250;8.312;2024-02-23T08:11:47;96862.34;;;8.42;61.43
27144;BME280;14672;50.250;8.312;2024-02-23T08:14:13;96877.56;;;8.85;61.02
27144;BME280;14672;50.250;8.312;2024-02-23T08:16:39;96882.47;;;8.29;61.26
27144;BME280;14672;50.250;8.312;2024-02-23T08:19:04;96883.38;;;8.56;60.88
27144;BME280;14672;50.250;8.312;2024-02-23T08:21:30;96882.34;;;8.38;61.64
27144;BME280;14672;50.250;8.312;2024-02-23T08:23:56;96887.03;;;8.62;60.84
27144;BME280;14672;50.250;8.312;2024-02-23T08:26:22;96888.06;;;8.44;61.82
27144;BME280;14672;50.250;8.312;2024-02-23T08:28:48;96882.88;;;8.77;61.25
27144;BME280;14672;50.250;8.312;2024-02-23T08:31:13;96887.53;;;8.80;60.60
27144;BME280;14672;50.250;8.312;2024-02-23T08:33:39;96893.13;;;8.55;61.00
27144;BME280;14672;50.250;8.312;2024-02-23T08:36:06;96900.28;;;8.70;61.19
27144;BME280;14672;50.250;8.312;2024-02-23T08:38:32;96898.22;;;8.71;61.09
27144;BME280;14672;50.250;8.312;2024-02-23T08:40:58;96894.06;;;8.66;60.71
27144;BME280;14672;50.250;8.312;2024-02-23T08:43:24;96906.63;;;8.65;60.88
27144;BME280;14672;50.250;8.312;2024-02-23T08:45:53;96903.75;;;8.80;60.98
27144;BME280;14672;50.250;8.312;2024-02-23T08:48:18;96902.00;;;8.82;60.84
27144;BME280;14672;50.250;8.312;2024-02-23T08:50:44;96904.59;;;8.66;61.26
27144;BME280;14672;50.250;8.312;2024-02-23T08:53:10;96908.28;;;8.72;61.58
27144;BME280;14672;50.250;8.312;2024-02-23T08:55:36;96919.75;;;8.83;61.30
27144;BME280;14672;50.250;8.312;2024-02-23T08:58:01;96917.13;;;8.79;61.28
27144;BME280;14672;50.250;8.312;2024-02-23T09:00:27;96919.19;;;8.99;61.05
27144;BME280;14672;50.250;8.312;2024-02-23T09:02:54;96913.22;;;8.97;61.02
27144;BME280;14672;50.250;8.312;2024-02-23T09:05:20;96907.28;;;8.75;61.37
27144;BME280;14672;50.250;8.312;2024-02-23T09:07:46;96909.53;;;8.51;62.53
27144;BME280;14672;50.250;8.312;2024-02-23T09:10:12;96902.75;;;8.63;61.96
27144;BME280;14672;50.250;8.312;2024-02-23T09:12:38;96903.31;;;8.67;62.87
27144;BME280;14672;50.250;8.312;2024-02-23T09:15:05;96900.22;;;8.85;62.24
27144;BME280;14672;50.250;8.312;2024-02-23T09:17:31;96902.47;;;8.61;62.14
27144;BME280;14672;50.250;8.312;2024-02-23T09:19:57;96895.44;;;8.56;62.72
27144;BME280;14672;50.250;8.312;2024-02-23T09:22:23;96903.00;;;8.79;61.99
27144;BME280;14672;50.250;8.312;2024-02-23T09:24:49;96910.53;;;8.88;62.21
27144;BME280;14672;50.250;8.312;2024-02-23T09:27:15;96899.06;;;9.17;61.46
27144;BME280;14672;50.250;8.312;2024-02-23T09:29:41;96908.66;;;9.00;60.92
27144;BME280;14672;50.250;8.312;2024-02-23T09:32:08;96902.81;;;9.09;61.21
27144;BME280;14672;50.250;8.312;2024-02-23T09:34:33;96913.94;;;9.12;61.28
27144;BME280;14672;50.250;8.312;2024-02-23T09:36:59;96910.97;;;8.81;61.43
27144;BME280;14672;50.250;8.312;2024-02-23T09:39:31;96908.69;;;9.05;61.22
27144;BME280;14672;50.250;8.312;2024-02-23T09:41:57;96905.84;;;9.25;60.73
27144;BME280;14672;50.250;8.312;2024-02-23T09:44:23;96898.78;;;9.35;60.58
27144;BME280;14672;50.250;8.312;2024-02-23T09:46:49;96897.31;;;9.46;60.14
27144;BME280;14672;50.250;8.312;2024-02-23T09:49:15;96893.47;;;9.49;59.92
27144;BME280;14672;50.250;8.312;2024-02-23T09:51:44;96891.31;;;10.58;57.42
27144;BME280;14672;50.250;8.312;2024-02-23T09:54:10;96887.31;;;11.46;55.00
27144;BME280;14672;50.250;8.312;2024-02-23T09:56:36;96881.88;;;11.42;54.20
27144;BME280;14672;50.250;8.312;2024-02-23T09:59:03;96888.44;;;11.93;54.48
27144;BME280;14672;50.250;8.312;2024-02-23T10:01:32;96882.16;;;11.61;54.63
27144;BME280;14672;50.250;8.312;2024-02-23T10:04:02;96879.13;;;12.03;53.20
27144;BME280;14672;50.250;8.312;2024-02-23T10:06:32;96881.72;;;12.46;52.13
27144;BME280;14672;50.250;8.312;2024-02-23T10:08:58;96876.56;;;12.22;52.52
27144;BME280;14672;50.250;8.312;2024-02-23T10:11:24;96878.59;;;11.71;52.43
27144;BME280;14672;50.250;8.312;2024-02-23T10:13:51;96885.38;;;11.15;53.88
27144;BME280;14672;50.250;8.312;2024-02-23T10:16:22;96878.97;;;11.25;53.64
27144;BME280;14672;50.250;8.312;2024-02-23T10:18:48;96883.56;;;11.06;53.63
27144;BME280;14672;50.250;8.312;2024-02-23T10:21:17;96882.31;;;11.18;54.64
27144;BME280;14672;50.250;8.312;2024-02-23T10:23:47;96898.84;;;11.14;55.09
27144;BME280;14672;50.250;8.312;2024-02-23T10:26:15;96894.66;;;10.99;55.97
27144;BME280;14672;50.250;8.312;2024-02-23T10:28:45;96892.03;;;10.95;56.39
27144;BME280;14672;50.250;8.312;2024-02-23T10:31:11;96891.88;;;10.67;56.54
27144;BME280;14672;50.250;8.312;2024-02-23T10:33:38;96892.50;;;10.82;56.62
27144;BME280;14672;50.250;8.312;2024-02-23T10:36:05;96877.59;;;10.51;56.97
27144;BME280;14672;50.250;8.312;2024-02-23T10:38:33;96872.66;;;10.99;56.09
27144;BME280;14672;50.250;8.312;2024-02-23T10:41:05;96875.16;;;11.51;55.73
27144;BME280;14672;50.250;8.312;2024-02-23T10:43:45;96878.59;;;11.83;54.19
27144;BME280;14672;50.250;8.312;2024-02-23T10:46:12;96878.84;;;11.79;53.42
27144;BME280;14672;50.250;8.312;2024-02-23T10:48:43;96883.28;;;11.04;54.64
27144;BME280;14672;50.250;8.312;2024-02-23T10:51:13;96878.97;;;11.31;53.97
27144;BME280;14672;50.250;8.312;2024-02-23T10:53:40;96878.44;;;11.21;54.14
27144;BME280;14672;50.250;8.312;2024-02-23T10:56:07;96878.06;;;10.86;54.48
27144;BME280;14672;50.250;8.312;2024-02-23T10:58:34;96885.25;;;10.87;54.53
27144;BME280;14672;50.250;8.312;2024-02-23T11:01:03;96876.78;;;10.93;53.95
27144;BME280;14672;50.250;8.312;2024-02-23T11:03:31;96865.88;;;10.80;54.65
27144;BME280;14672;50.250;8.312;2024-02-23T11:05:59;96882.22;;;10.91;54.57
27144;BME280;14672;50.250;8.312;2024-02-23T11:08:29;96873.31;;;10.72;54.31
27144;BME280;14672;50.250;8.312;2024-02-23T11:10:55;96884.38;;;10.64;54.76
27144;BME280;14672;50.250;8.312;2024-02-23T11:13:40;96881.97;;;10.94;53.68
27144;BME280;14672;50.250;8.312;2024-02-23T11:16:08;96884.13;;;10.62;54.09
27144;BME280;14672;50.250;8.312;2024-02-23T11:18:39;96886.97;;;11.21;53.54
27144;BME280;14672;50.250;8.312;2024-02-23T11:21:09;96881.53;;;11.23;52.74
27144;BME280;14672;50.250;8.312;2024-02-23T11:23:42;96872.94;;;11.94;51.10
27144;BME280;14672;50.250;8.312;2024-02-23T11:26:12;96866.44;;;11.88;51.83
27144;BME280;14672;50.250;8.312;2024-02-23T11:28:49;96856.84;;;12.52;50.41
27144;BME280;14672;50.250;8.312;2024-02-23T11:31:19;96854.34;;;13.11;48.58
27144;BME280;14672;50.250;8.312;2024-02-23T11:33:53;96863.09;;;13.25;47.16
27144;BME280;14672;50.250;8.312;2024-02-23T11:36:32;96855.22;;;12.79;48.08
27144;BME280;14672;50.250;8.312;2024-02-23T11:39:00;96854.75;;;12.58;48.89
27144;BME280;14672;50.250;8.312;2024-02-23T11:41:28;96851.69;;;12.22;49.00
27144;BME280;14672;50.250;8.312;2024-02-23T11:43:55;96856.00;;;11.35;50.11
27144;BME280;14672;50.250;8.312;2024-02-23T11:46:22;96857.88;;;11.71;48.95
27144;BME280;14672;50.250;8.312;2024-02-23T11:48:48;96850.69;;;11.81;48.35
27144;BME280;14672;50.250;8.312;2024-02-23T11:51:22;96861.28;;;11.81;49.07
27144;BME280;14672;50.250;8.312;2024-02-23T11:53:49;96848.81;;;11.61;48.90
27144;BME280;14672;50.250;8.312;2024-02-23T11:56:16;96850.16;;;11.83;49.01
27144;BME280;14672;50.250;8.312;2024-02-23T11:58:42;96853.66;;;11.39;49.25
27144;BME280;14672;50.250;8.312;2024-02-23T12:01:08;96845.19;;;11.50;49.09
27144;BME280;14672;50.250;8.312;2024-02-23T12:03:34;96848.59;;;11.87;49.05
27144;BME280;14672;50.250;8.312;2024-02-23T12:06:04;96842.38;;;12.28;48.93
27144;BME280;14672;50.250;8.312;2024-02-23T12:08:31;96848.09;;;12.00;48.83
27144;BME280;14672;50.250;8.312;2024-02-23T12:11:04;96862.56;;;12.07;49.33
27144;BME280;14672;50.250;8.312;2024-02-23T12:13:31;96864.38;;;11.71;48.72
27144;BME280;14672;50.250;8.312;2024-02-23T12:15:57;96862.78;;;11.65;48.88
27144;BME280;14672;50.250;8.312;2024-02-23T12:18:24;96864.06;;;11.53;49.50
27144;BME280;14672;50.250;8.312;2024-02-23T12:21:00;96854.47;;;11.39;49.52
27144;BME280;14672;50.250;8.312;2024-02-23T12:23:27;96849.63;;;11.73;49.13
27144;BME280;14672;50.250;8.312;2024-02-23T12:25:59;96877.91;;;11.23;50.06
27144;BME280;14672;50.250;8.312;2024-02-23T12:28:26;96852.56;;;11.08;51.58
27144;BME280;14672;50.250;8.312;2024-02-23T12:31:03;96855.75;;;11.38;51.45
27144;BME280;14672;50.250;8.312;2024-02-23T12:33:39;96851.41;;;11.54;51.09
27144;BME280;14672;50.250;8.312;2024-02-23T12:36:07;96864.84;;;11.53;50.28
27144;BME280;14672;50.250;8.312;2024-02-23T12:38:33;96850.63;;;11.59;50.50
27144;BME280;14672;50.250;8.312;2024-02-23T12:41:00;96854.47;;;11.39;50.92
27144;BME280;14672;50.250;8.312;2024-02-23T12:43:26;96850.91;;;12.28;49.16
27144;BME280;14672;50.250;8.312;2024-02-23T12:45:57;96832.47;;;12.62;48.74
27144;BME280;14672;50.250;8.312;2024-02-23T12:48:23;96842.41;;;11.83;48.69
27144;BME280;14672;50.250;8.312;2024-02-23T12:50:49;96846.72;;;11.51;48.68
27144;BME280;14672;50.250;8.312;2024-02-23T12:53:39;96847.06;;;11.92;48.50
27144;BME280;14672;50.250;8.312;2024-02-23T12:56:13;96853.97;;;11.63;48.56
27144;BME280;14672;50.250;8.312;2024-02-23T12:58:43;96867.50;;;11.73;47.75
27144;BME280;14672;50.250;8.312;2024-02-23T13:01:10;96875.56;;;11.10;50.24
27144;BME280;14672;50.250;8.312;2024-02-23T13:03:40;96890.84;;;11.18;50.71
27144;BME280;14672;50.250;8.312;2024-02-23T13:06:06;96881.28;;;11.27;49.63